KWJF/WJF METAR and TAF weather

Enter ICAO airport designator
Station Type Date Time Source
KWJF METAR 2021/05/14 12:56 UTC NOAA

KWJF 141256Z AUTO 24009KT 10SM CLR 18/03 A2993 RMK AO2 SLP118 T01830033


Station Type Date Time Source
KWJF Decoded METAR 2021/05/14 12:56 UTC NOAA

LANCASTER FOX AIRFIELD, CA, United States (KWJF) 34-44N 118-13W
May 14, 2021 - 08:56 AM EDT / 2021.05.14 1256 UTC
Wind: from the WSW (240 degrees) at 10 MPH (9 KT):0
Visibility: 10 mile(s):0
Sky conditions: clear
Temperature: 64.9 F (18.3 C)
Dew Point: 37.9 F (3.3 C)
Relative Humidity: 36%
Pressure (altimeter): 29.93 in. Hg (1013 hPa)
ob: KWJF 141256Z AUTO 24009KT 10SM CLR 18/03 A2993 RMK AO2 SLP118 T01830033
cycle: 13

Station Type Date Time Source
KWJF TAF 2021/05/14 12:27 UTC NOAA

TAF KWJF 141125Z 1412/1512 23008KT P6SM SKC
FM141900 23015G22KT P6SM SKC
FM142100 24021G31KT P6SM SKC
FM150300 25015KT P6SM SKC

Example: see airport list